Time;durP1;ratioP1;P1;durP2;ratioP2;P2;SDS_P1;SDS_P2;PMS_P1;PMS_P2;Temp;Humidity;BMP_temperature;BMP_pressure;BME280_temperature;BME280_humidity;BME280_pressure;Samples;Min_cycle;Max_cycle;Signal;HPM_P1;HPM_P2
2023/06/22 00:00:26;;;;;;;18.00;11.90;;;;;;;15.42;100.00;100583.83;105354;1257;59830;-64
2023/06/22 00:02:54;;;;;;;21.10;12.50;;;;;;;15.38;100.00;100582.43;105460;1257;60260;-63
2023/06/22 00:05:22;;;;;;;19.40;12.50;;;;;;;15.35;100.00;100584.27;105261;1251;72028;-64
2023/06/22 00:07:50;;;;;;;21.70;13.10;;;;;;;15.32;100.00;100584.23;105589;1257;65694;-65
2023/06/22 00:10:18;;;;;;;24.50;13.90;;;;;;;15.31;100.00;100587.70;105455;1251;73368;-65
2023/06/22 00:12:46;;;;;;;19.10;12.70;;;;;;;15.29;100.00;100588.19;105573;1257;59740;-64
2023/06/22 00:15:14;;;;;;;19.90;13.00;;;;;;;15.25;100.00;100592.52;105230;1257;59240;-64
2023/06/22 00:17:41;;;;;;;20.10;12.30;;;;;;;15.23;100.00;100590.51;105904;1253;73118;-65
2023/06/22 00:20:10;;;;;;;18.80;13.30;;;;;;;15.21;100.00;100591.84;105039;1257;67990;-68
2023/06/22 00:22:39;;;;;;;19.20;12.00;;;;;;;15.20;100.00;100596.05;105480;1251;72449;-64
2023/06/22 00:25:07;;;;;;;19.20;12.90;;;;;;;15.17;100.00;100596.94;105574;1257;59708;-64
2023/06/22 00:27:35;;;;;;;18.90;11.80;;;;;;;15.14;100.00;100596.61;105596;1250;60085;-64
2023/06/22 00:30:06;;;;;;;18.90;11.20;;;;;;;15.12;100.00;100598.28;105664;1250;72023;-64
2023/06/22 00:32:34;;;;;;;14.60;10.50;;;;;;;15.10;100.00;100599.30;105779;1252;66926;-63
2023/06/22 00:35:02;;;;;;;17.00;10.20;;;;;;;15.07;100.00;100603.48;105391;1250;73079;-64
2023/06/22 00:37:30;;;;;;;14.50;9.90;;;;;;;15.02;100.00;100603.63;105448;1253;60155;-68
2023/06/22 00:39:59;;;;;;;18.70;11.00;;;;;;;14.99;100.00;100604.45;105289;1257;59483;-70
2023/06/22 00:42:27;;;;;;;15.40;10.30;;;;;;;14.94;100.00;100600.16;105230;1250;71788;-65
2023/06/22 00:44:54;;;;;;;14.90;10.00;;;;;;;14.90;100.00;100599.23;105429;1251;65731;-64
2023/06/22 00:47:23;;;;;;;15.10;10.20;;;;;;;14.86;100.00;100599.16;105476;1257;72681;-65
2023/06/22 00:49:51;;;;;;;16.40;9.80;;;;;;;14.82;100.00;100600.81;105393;1251;60188;-63
2023/06/22 00:52:21;;;;;;;18.60;10.60;;;;;;;14.79;100.00;100597.46;105367;1252;59596;-65
2023/06/22 00:54:50;;;;;;;16.90;10.60;;;;;;;14.74;100.00;100595.68;105203;1252;72608;-65
2023/06/22 00:57:18;;;;;;;15.10;9.40;;;;;;;14.69;100.00;100590.34;105325;1257;65675;-70
2023/06/22 00:59:46;;;;;;;13.30;9.80;;;;;;;14.65;100.00;100590.39;105649;1253;72782;-66
2023/06/22 01:02:14;;;;;;;16.60;9.80;;;;;;;14.61;100.00;100593.85;105311;1253;62313;-66
2023/06/22 01:04:42;;;;;;;14.80;9.80;;;;;;;14.57;100.00;100595.08;105600;1259;59337;-68
2023/06/22 01:07:35;;;;;;;15.50;9.70;;;;;;;14.56;100.00;100599.27;105473;1252;73030;-71
2023/06/22 01:10:41;;;;;;;19.20;9.90;;;;;;;14.55;100.00;100603.76;105218;1258;67499;-66
2023/06/22 01:13:32;;;;;;;14.90;10.10;;;;;;;14.55;100.00;100610.77;105283;1254;71432;-72
2023/06/22 01:16:12;;;;;;;13.80;9.90;;;;;;;14.53;100.00;100610.02;105666;1253;61654;-71
2023/06/22 01:18:42;;;;;;;12.60;9.50;;;;;;;14.52;100.00;100611.30;105675;1252;60505;-67
2023/06/22 01:21:14;;;;;;;18.80;9.90;;;;;;;14.52;100.00;100614.89;105468;1257;73924;-65
2023/06/22 01:24:01;;;;;;;14.00;8.90;;;;;;;14.49;100.00;100619.55;105388;1253;66934;-64
2023/06/22 01:26:50;;;;;;;13.80;8.50;;;;;;;14.46;100.00;100620.96;105142;1253;73269;-65
2023/06/22 01:29:18;;;;;;;14.30;8.90;;;;;;;14.43;100.00;100623.15;105426;1258;60296;-71
2023/06/22 01:31:45;;;;;;;12.70;8.30;;;;;;;14.40;100.00;100626.83;105236;1253;60514;-67
2023/06/22 01:34:13;;;;;;;13.50;8.00;;;;;;;14.38;100.00;100628.81;105356;1257;73850;-65
2023/06/22 01:36:41;;;;;;;14.50;8.20;;;;;;;14.36;100.00;100627.17;105013;1261;65732;-65
2023/06/22 01:39:09;;;;;;;11.60;7.10;;;;;;;14.36;100.00;100631.13;105024;1253;72855;-68
2023/06/22 01:41:38;;;;;;;13.50;6.50;;;;;;;14.38;100.00;100633.39;105390;1258;60492;-70
2023/06/22 01:44:09;;;;;;;12.50;8.10;;;;;;;14.41;100.00;100637.88;105260;1253;60475;-64
2023/06/22 01:46:37;;;;;;;11.50;7.00;;;;;;;14.44;100.00;100639.73;105322;1253;73266;-65
2023/06/22 01:49:04;;;;;;;11.70;6.70;;;;;;;14.50;100.00;100645.70;104899;1260;67048;-70
2023/06/22 01:51:32;;;;;;;9.20;7.50;;;;;;;14.54;100.00;100648.63;105123;1253;71863;-65
2023/06/22 01:54:01;;;;;;;11.50;7.60;;;;;;;14.58;100.00;100648.46;105435;1257;60428;-65
2023/06/22 01:56:29;;;;;;;14.10;8.00;;;;;;;14.65;100.00;100649.84;105107;1258;62556;-66
2023/06/22 01:59:17;;;;;;;10.00;6.70;;;;;;;14.77;100.00;100653.09;105476;1254;72616;-67
2023/06/22 02:01:52;;;;;;;15.40;7.10;;;;;;;15.05;100.00;100652.82;105247;1252;67089;-63
2023/06/22 02:04:23;;;;;;;10.10;7.10;;;;;;;15.46;100.00;100655.64;105882;1254;72688;-63
2023/06/22 02:06:51;;;;;;;10.60;6.50;;;;;;;15.92;100.00;100656.32;104930;1253;60512;-64
2023/06/22 02:09:19;;;;;;;11.50;6.60;;;;;;;16.36;100.00;100657.52;105285;1257;61077;-66
2023/06/22 02:11:48;;;;;;;11.10;7.60;;;;;;;16.77;100.00;100654.60;105426;1258;73930;-65
2023/06/22 02:14:16;;;;;;;14.90;6.60;;;;;;;17.14;100.00;100647.06;105347;1257;65534;-66
2023/06/22 02:16:46;;;;;;;10.40;7.30;;;;;;;17.52;100.00;100648.60;105007;1254;73302;-70
2023/06/22 02:19:15;;;;;;;15.40;7.60;;;;;;;17.88;100.00;100647.33;104939;1257;60528;-65
2023/06/22 02:21:44;;;;;;;11.70;7.50;;;;;;;18.20;100.00;100646.85;105324;1251;60733;-66
2023/06/22 02:24:13;;;;;;;12.30;6.60;;;;;;;18.49;100.00;100644.12;105353;1253;72563;-70
2023/06/22 02:26:42;;;;;;;12.60;7.10;;;;;;;18.85;100.00;100642.27;105501;1253;65682;-70
2023/06/22 02:29:10;;;;;;;9.90;6.80;;;;;;;19.26;100.00;100643.15;105259;1251;72672;-65
2023/06/22 02:31:37;;;;;;;9.20;6.10;;;;;;;19.71;100.00;100647.14;105350;1257;60754;-66
2023/06/22 02:34:05;;;;;;;12.50;6.00;;;;;;;20.13;100.00;100648.60;105405;1253;60540;-64
2023/06/22 02:36:33;;;;;;;9.10;5.70;;;;;;;20.51;100.00;100647.98;105591;1252;73783;-71
2023/06/22 02:39:01;;;;;;;7.70;5.40;;;;;;;20.90;100.00;100644.53;105220;1258;66983;-66
2023/06/22 02:41:30;;;;;;;9.10;6.20;;;;;;;21.22;100.00;100640.77;105346;1257;73205;-64
2023/06/22 02:43:58;;;;;;;11.40;6.30;;;;;;;21.53;100.00;100644.34;105244;1258;60590;-66
2023/06/22 02:46:25;;;;;;;9.60;6.40;;;;;;;21.81;100.00;100646.10;105693;1253;60445;-70
2023/06/22 02:48:53;;;;;;;8.60;5.90;;;;;;;22.20;100.00;100649.68;104895;1258;74833;-65
2023/06/22 02:51:21;;;;;;;10.70;5.60;;;;;;;22.61;100.00;100646.92;105471;1254;67129;-65
2023/06/22 02:53:52;;;;;;;9.10;5.00;;;;;;;22.95;100.00;100653.27;105234;1258;72769;-66
2023/06/22 02:56:24;;;;;;;11.60;5.70;;;;;;;23.29;99.80;100654.66;105633;1253;60540;-71
2023/06/22 02:58:54;;;;;;;11.30;5.50;;;;;;;23.66;96.70;100656.63;105279;1253;60972;-65
2023/06/22 03:01:24;;;;;;;11.10;5.70;;;;;;;23.94;88.14;100663.05;109324;1251;74814;-65
2023/06/22 03:03:52;;;;;;;8.00;5.40;;;;;;;24.06;84.90;100668.64;109345;1251;65721;-65
2023/06/22 03:06:23;;;;;;;6.90;4.50;;;;;;;24.21;81.80;100663.72;109307;1253;71449;-67
2023/06/22 03:08:51;;;;;;;7.10;5.10;;;;;;;24.38;75.23;100660.77;109148;1252;58899;-65
2023/06/22 03:11:18;;;;;;;7.30;5.30;;;;;;;24.45;73.68;100662.23;109318;1251;58876;-66
2023/06/22 03:13:46;;;;;;;9.50;5.30;;;;;;;24.49;70.54;100663.98;109163;1251;73834;-66
2023/06/22 03:16:14;;;;;;;7.10;4.80;;;;;;;24.54;69.70;100665.92;109289;1251;66846;-71
2023/06/22 03:18:41;;;;;;;8.60;5.10;;;;;;;24.65;67.74;100666.55;109274;1253;72742;-65
2023/06/22 03:21:09;;;;;;;8.20;5.40;;;;;;;24.82;66.01;100664.89;109279;1251;60159;-65
2023/06/22 03:23:37;;;;;;;7.50;5.60;;;;;;;25.05;63.03;100661.85;109317;1251;59875;-65
2023/06/22 03:26:05;;;;;;;8.90;6.30;;;;;;;25.25;60.99;100665.88;109184;1251;73932;-66
2023/06/22 03:28:33;;;;;;;8.40;5.80;;;;;;;25.43;57.56;100669.41;109233;1252;66976;-71
2023/06/22 03:31:01;;;;;;;9.20;6.30;;;;;;;25.57;57.89;100669.20;109200;1251;71173;-65
2023/06/22 03:33:30;;;;;;;8.00;6.40;;;;;;;25.81;55.08;100669.50;109186;1251;59187;-65
2023/06/22 03:35:58;;;;;;;10.80;6.10;;;;;;;25.99;53.57;100673.36;109184;1251;60144;-63
2023/06/22 03:38:25;;;;;;;10.60;5.70;;;;;;;26.11;50.50;100674.80;109275;1251;73070;-69
2023/06/22 03:40:54;;;;;;;10.50;6.40;;;;;;;26.22;52.35;100676.11;109163;1258;65623;-63
2023/06/22 03:43:23;;;;;;;8.30;6.00;;;;;;;26.56;50.50;100677.18;109171;1251;72776;-63
2023/06/22 03:45:50;;;;;;;7.30;5.50;;;;;;;26.81;48.04;100680.77;109187;1251;60117;-62
2023/06/22 03:48:18;;;;;;;7.70;5.80;;;;;;;27.07;47.55;100681.08;109171;1251;58728;-70
2023/06/22 03:50:46;;;;;;;7.80;5.60;;;;;;;27.40;47.27;100682.89;109324;1251;74444;-63
2023/06/22 03:53:13;;;;;;;7.70;5.40;;;;;;;27.82;45.36;100685.95;109400;1251;65646;-63
2023/06/22 03:55:48;;;;;;;9.50;6.20;;;;;;;28.25;42.27;100688.81;109384;1251;72534;-64
2023/06/22 03:58:18;;;;;;;8.60;6.00;;;;;;;28.46;40.64;100694.85;109298;1251;58959;-68
2023/06/22 04:00:47;;;;;;;9.00;6.10;;;;;;;28.52;40.09;100697.42;109251;1251;58641;-66
2023/06/22 04:03:15;;;;;;;12.60;6.00;;;;;;;28.62;39.24;100696.52;109347;1251;72603;-63
2023/06/22 04:05:43;;;;;;;7.60;6.00;;;;;;;28.75;38.33;100697.80;109359;1251;67244;-63
2023/06/22 04:08:11;;;;;;;9.10;5.70;;;;;;;28.94;37.49;100699.23;109359;1253;72748;-63
2023/06/22 04:10:39;;;;;;;10.10;5.60;;;;;;;29.30;36.72;100706.16;109058;1252;58866;-68
2023/06/22 04:13:07;;;;;;;7.40;5.60;;;;;;;29.54;35.40;100709.51;109313;1252;59117;-64
2023/06/22 04:15:34;;;;;;;9.60;6.00;;;;;;;29.68;35.79;100708.02;109403;1251;73925;-63
2023/06/22 04:18:02;;;;;;;8.10;5.20;;;;;;;29.94;34.57;100704.36;109323;1251;66920;-66
2023/06/22 04:20:31;;;;;;;9.40;5.90;;;;;;;30.16;33.61;100708.41;109224;1252;71439;-68
2023/06/22 04:22:59;;;;;;;10.20;5.00;;;;;;;30.38;33.36;100711.03;109145;1253;60637;-63
2023/06/22 04:25:27;;;;;;;7.20;4.90;;;;;;;30.73;32.29;100715.75;109365;1251;58744;-63
2023/06/22 04:27:55;;;;;;;8.10;4.80;;;;;;;30.96;32.02;100715.17;109340;1251;73004;-63
2023/06/22 04:30:22;;;;;;;7.90;4.80;;;;;;;31.39;31.37;100719.40;109283;1252;65706;-70
2023/06/22 04:32:56;;;;;;;6.40;4.80;;;;;;;31.81;30.56;100719.95;109273;1252;71627;-64
2023/06/22 04:35:24;;;;;;;6.60;4.30;;;;;;;32.10;29.81;100720.36;109304;1252;58838;-64
2023/06/22 04:37:54;;;;;;;5.60;4.40;;;;;;;32.44;29.36;100725.23;109181;1251;60168;-65
2023/06/22 04:40:23;;;;;;;7.00;4.10;;;;;;;32.82;28.56;100721.63;109291;1251;72621;-69
2023/06/22 04:42:53;;;;;;;7.20;4.30;;;;;;;33.00;27.83;100725.86;109311;1256;67602;-64
2023/06/22 04:45:21;;;;;;;6.40;3.90;;;;;;;33.09;27.01;100731.56;109314;1251;72662;-64
2023/06/22 04:47:49;;;;;;;6.60;4.50;;;;;;;33.17;26.95;100732.89;109328;1251;58178;-70
2023/06/22 04:50:17;;;;;;;7.80;4.30;;;;;;;33.24;27.40;100736.77;109334;1253;59048;-64
2023/06/22 04:52:45;;;;;;;5.60;4.20;;;;;;;33.34;26.61;100736.95;109316;1252;74866;-63
2023/06/22 04:55:18;;;;;;;8.00;5.30;;;;;;;33.35;26.71;100736.53;109353;1251;65807;-64
2023/06/22 04:57:49;;;;;;;6.30;4.90;;;;;;;33.47;26.41;100741.66;109265;1253;72574;-66
2023/06/22 05:00:17;;;;;;;6.90;4.60;;;;;;;33.32;26.63;100743.16;109322;1253;58637;-70
2023/06/22 05:02:46;;;;;;;8.00;5.30;;;;;;;33.37;26.98;100747.83;109168;1254;60706;-64
2023/06/22 05:05:14;;;;;;;8.40;5.00;;;;;;;33.60;26.60;100748.85;109368;1251;65027;-66
2023/06/22 05:07:48;;;;;;;9.80;6.20;;;;;;;33.69;26.62;100751.43;109273;1251;66944;-70
2023/06/22 05:10:15;;;;;;;7.90;5.60;;;;;;;33.74;26.37;100752.84;109293;1256;72744;-72
2023/06/22 05:12:43;;;;;;;11.80;6.10;;;;;;;33.52;26.34;100752.38;109314;1251;58698;-66
2023/06/22 05:15:11;;;;;;;7.30;5.30;;;;;;;33.35;26.60;100747.75;109361;1252;58616;-66
2023/06/22 05:17:42;;;;;;;8.40;5.40;;;;;;;33.46;27.26;100751.19;109326;1251;73671;-71
2023/06/22 05:20:11;;;;;;;11.20;6.20;;;;;;;33.85;27.10;100748.13;109326;1251;58300;-72
2023/06/22 05:22:39;;;;;;;8.40;5.60;;;;;;;34.48;26.55;100747.92;109123;1251;62479;-65
2023/06/22 05:25:09;;;;;;;10.60;5.90;;;;;;;34.91;25.64;100746.72;109322;1251;59289;-66
2023/06/22 05:27:39;;;;;;;8.90;5.70;;;;;;;35.16;25.38;100743.00;109250;1251;58335;-70
2023/06/22 05:30:07;;;;;;;9.70;5.50;;;;;;;35.31;25.21;100748.90;109317;1251;65027;-69
2023/06/22 05:32:36;;;;;;;8.10;5.60;;;;;;;35.21;25.16;100750.45;109340;1255;58811;-65
2023/06/22 05:35:04;;;;;;;9.30;6.10;;;;;;;35.15;25.27;100755.59;109363;1253;63816;-65
2023/06/22 05:37:32;;;;;;;8.20;5.30;;;;;;;35.38;24.89;100756.95;109319;1251;58665;-71
2023/06/22 05:39:59;;;;;;;6.50;5.40;;;;;;;35.75;24.34;100755.80;109303;1251;58353;-69
2023/06/22 05:42:28;;;;;;;8.70;6.00;;;;;;;35.76;24.07;100753.91;109309;1251;65033;-65
2023/06/22 05:44:55;;;;;;;7.50;5.30;;;;;;;35.57;24.45;100756.91;109343;1251;58525;-64
2023/06/22 05:47:23;;;;;;;6.80;4.70;;;;;;;35.65;24.02;100757.35;109335;1253;63815;-65
2023/06/22 05:49:51;;;;;;;5.00;3.90;;;;;;;35.61;23.33;100756.45;109257;1252;60058;-68
2023/06/22 05:52:18;;;;;;;6.10;4.30;;;;;;;35.75;23.51;100751.01;109305;1252;58143;-65
2023/06/22 05:54:46;;;;;;;7.00;4.50;;;;;;;35.92;24.19;100749.04;109325;1251;65007;-65
2023/06/22 05:57:13;;;;;;;8.00;4.70;;;;;;;36.09;24.27;100746.21;109351;1253;58197;-66
2023/06/22 05:59:41;;;;;;;5.80;4.90;;;;;;;36.33;24.15;100742.70;109268;1253;62531;-69
2023/06/22 06:02:09;;;;;;;5.50;4.40;;;;;;;36.50;23.40;100743.60;109270;1253;58702;-70
2023/06/22 06:04:36;;;;;;;4.90;3.80;;;;;;;36.36;22.78;100742.73;109348;1252;58100;-64
2023/06/22 06:07:04;;;;;;;6.40;4.40;;;;;;;36.12;22.88;100741.48;109374;1251;65014;-65
2023/06/22 06:09:32;;;;;;;5.90;3.50;;;;;;;36.12;23.10;100743.29;109352;1251;58687;-69
2023/06/22 06:11:59;;;;;;;6.00;4.10;;;;;;;35.86;23.67;100743.80;109328;1253;63832;-68
2023/06/22 06:14:27;;;;;;;6.60;4.40;;;;;;;35.19;24.15;100746.51;109332;1253;58595;-64
2023/06/22 06:16:55;;;;;;;5.50;3.90;;;;;;;34.39;24.97;100754.17;109387;1253;58058;-64
2023/06/22 06:19:22;;;;;;;7.90;4.20;;;;;;;34.08;25.49;100748.95;109341;1251;72676;-65
2023/06/22 06:21:51;;;;;;;5.10;3.60;;;;;;;34.14;25.84;100753.20;109328;1251;66862;-71
2023/06/22 06:24:18;;;;;;;6.20;3.50;;;;;;;34.27;25.70;100749.38;109086;1251;71461;-64
2023/06/22 06:26:46;;;;;;;4.90;3.30;;;;;;;34.32;24.79;100750.89;109352;1251;60110;-63
2023/06/22 06:29:16;;;;;;;5.70;3.40;;;;;;;34.06;25.25;100753.58;109340;1251;58418;-65
2023/06/22 06:31:43;;;;;;;5.30;3.00;;;;;;;33.56;24.83;100754.23;109264;1251;72573;-68
2023/06/22 06:34:11;;;;;;;5.10;3.40;;;;;;;33.00;25.15;100748.77;109364;1250;67513;-65
2023/06/22 06:36:39;;;;;;;5.00;3.10;;;;;;;32.98;25.87;100751.86;109400;1249;72656;-65
2023/06/22 06:39:06;;;;;;;4.80;3.00;;;;;;;33.21;25.91;100752.95;109363;1250;58775;-67
2023/06/22 06:41:34;;;;;;;4.80;2.80;;;;;;;33.46;24.99;100753.00;109376;1250;60115;-67
2023/06/22 06:44:01;;;;;;;5.50;2.60;;;;;;;33.35;24.63;100749.13;109284;1256;63709;-69
2023/06/22 06:46:29;;;;;;;4.10;2.80;;;;;;;33.00;24.70;100742.32;109384;1250;66322;-65
2023/06/22 06:48:57;;;;;;;3.90;2.60;;;;;;;32.79;25.49;100743.39;109378;1250;72777;-64
2023/06/22 06:51:24;;;;;;;3.60;2.80;;;;;;;32.49;25.01;100736.23;109342;1250;60136;-65
2023/06/22 06:53:52;;;;;;;4.50;2.70;;;;;;;32.05;25.57;100739.96;109386;1250;60071;-65
2023/06/22 06:56:20;;;;;;;4.90;2.90;;;;;;;31.65;26.22;100741.47;109363;1255;73906;-64
2023/06/22 06:58:50;;;;;;;5.10;2.30;;;;;;;31.40;26.48;100745.30;109352;1250;65837;-65
2023/06/22 07:01:17;;;;;;;3.40;2.50;;;;;;;31.39;25.79;100742.84;109385;1250;72712;-63
2023/06/22 07:03:48;;;;;;;5.80;3.00;;;;;;;31.32;27.05;100746.69;109331;1250;60126;-68
2023/06/22 07:06:16;;;;;;;3.20;2.50;;;;;;;31.58;26.87;100749.81;109370;1250;58786;-66
2023/06/22 07:08:44;;;;;;;7.10;2.90;;;;;;;31.77;25.80;100758.05;109416;1250;73977;-65
2023/06/22 07:11:11;;;;;;;5.10;3.00;;;;;;;31.81;26.53;100758.67;109429;1250;65614;-63
2023/06/22 07:13:39;;;;;;;3.50;2.30;;;;;;;32.15;26.33;100760.21;109385;1250;70802;-67
2023/06/22 07:16:06;;;;;;;4.30;2.80;;;;;;;32.69;25.66;100754.13;109330;1250;60678;-69
2023/06/22 07:18:34;;;;;;;4.10;2.40;;;;;;;33.28;25.17;100755.73;109374;1256;59523;-67
2023/06/22 07:21:03;;;;;;;6.20;3.00;;;;;;;33.40;24.17;100760.94;109450;1249;73981;-65
2023/06/22 07:23:31;;;;;;;5.30;3.10;;;;;;;33.02;23.93;100761.64;109400;1250;65959;-67
2023/06/22 07:26:01;;;;;;;3.20;2.20;;;;;;;32.53;23.83;100765.01;109395;1250;71558;-70
2023/06/22 07:28:36;;;;;;;4.90;2.70;;;;;;;32.41;24.52;100754.73;109364;1254;60660;-66
2023/06/22 07:31:04;;;;;;;3.90;2.70;;;;;;;33.02;23.98;100751.54;109413;1250;59257;-66
2023/06/22 07:33:32;;;;;;;4.50;2.60;;;;;;;33.55;22.31;100751.80;109428;1250;65004;-65
2023/06/22 07:35:59;;;;;;;3.80;2.00;;;;;;;33.58;22.49;100748.25;109328;1256;66161;-70
2023/06/22 07:38:27;;;;;;;7.50;2.70;;;;;;;33.84;22.58;100748.31;109372;1250;72719;-64
2023/06/22 07:40:54;;;;;;;5.10;2.60;;;;;;;33.85;22.34;100746.56;109353;1250;60143;-64
2023/06/22 07:43:22;;;;;;;4.60;2.50;;;;;;;33.55;23.07;100747.71;109386;1250;59098;-64
2023/06/22 07:45:52;;;;;;;4.40;2.70;;;;;;;33.23;23.33;100757.66;109391;1250;63709;-67
2023/06/22 07:48:21;;;;;;;5.20;2.70;;;;;;;32.73;23.42;100755.72;109378;1252;67604;-67
2023/06/22 07:50:49;;;;;;;4.20;2.80;;;;;;;32.53;23.71;100756.07;109405;1250;71421;-64
2023/06/22 07:53:16;;;;;;;6.80;2.90;;;;;;;32.37;24.32;100758.27;109344;1250;58874;-68
2023/06/22 07:55:44;;;;;;;4.70;2.40;;;;;;;32.44;23.99;100751.27;109356;1250;58932;-70
2023/06/22 07:58:18;;;;;;;4.70;2.60;;;;;;;32.56;24.29;100753.30;109305;1251;74409;-64
2023/06/22 08:00:49;;;;;;;4.90;3.20;;;;;;;32.59;24.22;100754.08;109433;1250;67035;-67
2023/06/22 08:03:16;;;;;;;4.10;3.00;;;;;;;32.88;23.85;100757.23;109380;1254;62494;-66
2023/06/22 08:05:44;;;;;;;4.00;2.70;;;;;;;33.30;22.85;100757.13;109324;1249;58240;-67
2023/06/22 08:08:14;;;;;;;5.80;3.00;;;;;;;33.32;22.36;100753.34;109299;1251;58826;-64
2023/06/22 08:10:43;;;;;;;4.00;2.60;;;;;;;32.92;23.04;100747.27;109373;1250;73943;-63
2023/06/22 08:13:11;;;;;;;5.00;3.00;;;;;;;32.71;23.59;100753.63;109357;1251;65486;-63
2023/06/22 08:15:39;;;;;;;5.00;3.00;;;;;;;32.46;23.81;100749.52;109361;1250;73150;-63
2023/06/22 08:18:06;;;;;;;3.90;2.60;;;;;;;32.27;23.74;100745.27;109337;1250;60641;-66
2023/06/22 08:20:34;;;;;;;5.40;3.10;;;;;;;31.98;24.08;100748.36;109332;1251;58805;-66
2023/06/22 08:23:06;;;;;;;4.20;3.10;;;;;;;31.78;23.73;100749.40;109372;1251;73911;-65
2023/06/22 08:25:34;;;;;;;5.30;3.30;;;;;;;31.86;23.77;100750.26;109371;1251;65815;-65
2023/06/22 08:28:02;;;;;;;5.30;2.90;;;;;;;32.09;23.88;100748.95;109319;1250;72722;-68
2023/06/22 08:30:29;;;;;;;4.40;2.90;;;;;;;32.37;24.08;100750.18;109257;1251;58843;-65
2023/06/22 08:32:57;;;;;;;3.90;2.80;;;;;;;32.63;23.89;100751.98;109380;1250;60552;-64
2023/06/22 08:35:25;;;;;;;6.20;3.40;;;;;;;32.61;23.54;100749.42;109393;1251;72632;-64
2023/06/22 08:37:55;;;;;;;4.90;3.10;;;;;;;32.73;23.42;100754.17;109380;1250;65252;-67
2023/06/22 08:40:23;;;;;;;5.40;3.50;;;;;;;32.84;23.64;100753.42;109318;1251;71476;-62
2023/06/22 08:42:50;;;;;;;4.50;2.90;;;;;;;32.84;23.30;100754.88;109354;1251;58991;-62
2023/06/22 08:45:18;;;;;;;3.50;2.50;;;;;;;32.80;23.37;100757.68;109398;1250;60111;-63
2023/06/22 08:47:46;;;;;;;5.80;3.40;;;;;;;32.74;22.05;100752.67;109332;1250;73878;-64
2023/06/22 08:50:13;;;;;;;4.80;2.70;;;;;;;32.77;22.15;100756.02;109367;1249;67564;-66
2023/06/22 08:52:41;;;;;;;3.80;2.70;;;;;;;33.04;21.50;100747.57;109325;1250;71452;-63
2023/06/22 08:55:09;;;;;;;5.60;2.60;;;;;;;33.05;22.37;100750.52;109326;1251;58838;-63
2023/06/22 08:57:38;;;;;;;4.20;2.60;;;;;;;32.68;22.68;100749.30;109332;1250;58804;-64
2023/06/22 09:00:19;;;;;;;6.30;3.00;;;;;;;32.10;23.34;100760.68;109350;1250;73926;-64
2023/06/22 09:02:47;;;;;;;3.30;2.30;;;;;;;31.67;24.26;100763.42;109401;1256;65750;-62
2023/06/22 09:05:15;;;;;;;4.50;2.70;;;;;;;31.87;23.51;100757.59;109366;1256;73204;-65
2023/06/22 09:07:43;;;;;;;3.80;2.60;;;;;;;31.90;23.10;100756.36;109313;1250;60179;-63
2023/06/22 09:10:11;;;;;;;4.20;2.30;;;;;;;31.59;24.10;100753.27;109375;1250;58837;-68
2023/06/22 09:12:39;;;;;;;3.30;2.30;;;;;;;31.56;24.13;100748.35;109320;1251;74506;-63
2023/06/22 09:15:07;;;;;;;4.00;2.40;;;;;;;31.59;24.03;100752.42;109404;1250;67017;-62
2023/06/22 09:17:40;;;;;;;3.10;2.00;;;;;;;31.67;24.17;100747.56;109185;1249;295963;-62
2023/06/22 09:20:10;;;;;;;3.30;1.60;;;;;;;32.01;23.24;100745.79;109056;1257;60092;-64
2023/06/22 09:22:38;;;;;;;3.50;2.40;;;;;;;32.35;23.33;100742.73;109318;1250;60081;-64
2023/06/22 09:25:07;;;;;;;2.60;1.80;;;;;;;32.54;22.53;100746.31;109321;1250;73920;-69
2023/06/22 09:27:34;;;;;;;3.00;2.10;;;;;;;32.32;22.22;100737.79;109346;1251;66803;-64
2023/06/22 09:30:03;;;;;;;3.20;2.00;;;;;;;32.16;22.62;100740.39;109325;1255;72730;-60
2023/06/22 09:32:31;;;;;;;2.70;1.70;;;;;;;32.17;22.94;100743.05;109276;1249;60672;-63
2023/06/22 09:34:58;;;;;;;5.70;2.00;;;;;;;32.31;23.35;100740.33;109306;1251;58836;-64
2023/06/22 09:37:26;;;;;;;4.10;2.00;;;;;;;32.63;23.04;100743.16;109392;1251;65006;-62
2023/06/22 09:39:54;;;;;;;2.40;1.60;;;;;;;32.91;21.63;100735.00;109413;1251;66945;-61
2023/06/22 09:42:21;;;;;;;3.30;1.80;;;;;;;32.90;22.26;100737.14;109333;1249;72879;-62
2023/06/22 09:44:49;;;;;;;4.90;1.80;;;;;;;33.24;21.89;100737.50;109269;1253;58242;-63
2023/06/22 09:47:17;;;;;;;4.60;1.80;;;;;;;33.78;22.23;100740.78;109356;1251;62292;-62
2023/06/22 09:49:45;;;;;;;2.90;1.60;;;;;;;34.00;21.74;100743.23;109339;1250;72386;-64
2023/06/22 09:52:15;;;;;;;3.00;1.90;;;;;;;34.06;21.41;100736.72;109380;1251;68196;-66
2023/06/22 09:54:43;;;;;;;4.60;1.80;;;;;;;33.85;21.21;100733.19;109282;1254;72677;-67
2023/06/22 09:57:11;;;;;;;3.00;1.90;;;;;;;33.42;21.15;100733.11;109299;1253;58187;-63
2023/06/22 09:59:41;;;;;;;3.40;2.00;;;;;;;32.82;20.92;100728.08;109319;1251;59421;-65
2023/06/22 10:02:09;;;;;;;3.10;1.90;;;;;;;32.27;21.45;100728.55;109327;1254;74450;-62
2023/06/22 10:04:37;;;;;;;3.20;1.90;;;;;;;31.84;22.43;100723.36;109285;1251;69281;-66
2023/06/22 10:07:06;;;;;;;3.70;1.60;;;;;;;31.63;23.20;100720.80;109221;1251;73615;-63
2023/06/22 10:09:33;;;;;;;2.90;1.90;;;;;;;31.70;23.45;100715.36;109336;1250;62032;-67
2023/06/22 10:12:01;;;;;;;2.50;1.50;;;;;;;32.04;23.14;100712.86;109336;1251;58821;-64
2023/06/22 10:14:29;;;;;;;2.60;1.80;;;;;;;32.20;23.02;100710.90;109282;1251;72428;-64
2023/06/22 10:16:57;;;;;;;5.00;1.80;;;;;;;32.40;23.43;100710.24;109313;1251;67534;-64
2023/06/22 10:19:26;;;;;;;4.00;2.00;;;;;;;32.68;22.67;100709.97;109392;1251;72708;-68
2023/06/22 10:21:55;;;;;;;3.10;1.70;;;;;;;32.63;22.63;100706.83;109356;1249;58700;-64
2023/06/22 10:24:22;;;;;;;2.80;1.80;;;;;;;32.43;22.84;100708.92;109356;1249;58793;-66
2023/06/22 10:26:50;;;;;;;6.90;1.80;;;;;;;32.41;21.44;100711.14;109222;1255;74465;-67
2023/06/22 10:29:20;;;;;;;3.00;1.80;;;;;;;32.41;22.20;100708.34;109355;1250;67667;-65
2023/06/22 10:31:47;;;;;;;2.70;1.70;;;;;;;32.65;22.00;100705.72;109262;1250;72714;-67
2023/06/22 10:34:15;;;;;;;2.60;1.60;;;;;;;32.92;21.45;100702.93;109293;1251;58842;-64
2023/06/22 10:36:43;;;;;;;2.20;1.50;;;;;;;33.04;20.80;100704.73;109270;1251;58670;-68
2023/06/22 10:39:10;;;;;;;2.80;1.90;;;;;;;32.93;20.73;100700.35;109310;1251;65808;-64
2023/06/22 10:41:38;;;;;;;2.40;1.70;;;;;;;32.81;21.34;100699.73;109376;1251;60191;-64
2023/06/22 10:44:06;;;;;;;2.70;1.80;;;;;;;32.61;21.02;100699.75;109314;1251;73808;-64
2023/06/22 10:46:33;;;;;;;3.10;1.90;;;;;;;32.50;21.72;100702.49;109313;1254;58889;-65
2023/06/22 10:49:01;;;;;;;3.70;1.80;;;;;;;32.39;22.13;100702.57;109259;1251;59784;-64
2023/06/22 10:51:28;;;;;;;2.80;1.90;;;;;;;32.18;22.29;100700.31;109371;1251;72473;-63
2023/06/22 10:53:56;;;;;;;4.70;2.00;;;;;;;32.06;22.38;100699.92;109354;1250;67162;-63
2023/06/22 10:56:23;;;;;;;4.20;1.70;;;;;;;32.17;22.47;100702.80;109330;1251;71449;-65
2023/06/22 10:58:51;;;;;;;4.60;1.70;;;;;;;32.13;21.68;100700.02;109237;1256;60807;-67
2023/06/22 11:01:20;;;;;;;4.90;1.70;;;;;;;32.15;21.69;100696.23;109337;1251;60086;-64
2023/06/22 11:04:03;;;;;;;2.70;1.80;;;;;;;32.38;21.22;100698.95;109335;1250;73942;-63
2023/06/22 11:06:31;;;;;;;2.40;1.60;;;;;;;32.63;21.51;100697.27;109118;1251;65638;-67
2023/06/22 11:08:59;;;;;;;2.30;1.60;;;;;;;32.70;20.83;100694.04;109310;1251;73272;-63
2023/06/22 11:11:29;;;;;;;2.70;1.80;;;;;;;32.50;20.74;100689.55;109366;1251;59372;-62
2023/06/22 11:13:57;;;;;;;4.70;1.60;;;;;;;32.47;21.52;100687.42;109305;1251;59351;-62
2023/06/22 11:16:25;;;;;;;2.30;1.50;;;;;;;32.51;21.55;100688.27;109329;1251;76160;-67
2023/06/22 11:18:53;;;;;;;2.80;1.90;;;;;;;32.38;22.03;100687.98;109322;1251;65027;-62